Terminal Aerodrome Forecast
Issued by NWS Blacksburg, VA

Home | Current Version | Previous Version | Text Only | Print | Product List | Glossary On
Versions: 1 2 3 4 5 6 7 8 9 10 11 12 13 14 15 16 17 18 19 20 21 22 23 24 25 26 27 28 29 30 31 32 33 34 35 36 37 38 39 40 41 42 43 44 45 46 47 48
000
FTUS41 KRNK 050702 AAB
TAFROA
TAF AMD
KROA 050702Z 0507/0606 35006KT 6SM -RA BR SCT005 OVC030
     FM050900 31006KT 6SM -RA OVC015
     FM051300 33004KT 4SM -RAPL BR OVC007
     FM051500 01006KT 2SM -PL BR OVC004
     FM051900 33008KT 3SM -SN BR OVC008
     FM060000 31010KT P6SM BKN045=

USA.gov is the U.S. government's official web portal to all federal, state and local government web resources and services.